Page Municipal Airport Page US
ICAO: KPGA
IATA: PGA
Category: Medium
Scheduled Services: No

Elevation: 4316 ft
TransAlt. 18000 ft.

Airport Communications:
ASOS:120.625
DENVER CNTR:127.55
PRESCOTT RDO:122.45
CTAF/UNICOM:122.8

KPGA Zoom In..

Runways:

(A) RW 07 length 2201 ft width 75 ft
---- / hdg 68

(B) RW 15 length 5950 ft width 150 ft
---- / hdg 156

(C) RW 25 length 2201 ft width 75 ft
---- / hdg 248

(D) RW 33 length 5950 ft width 150 ft
---- / hdg 336

Location; KPGA
Day. 14 / Time. 13.53 Zulu
* Altimeter: 29.99
* Temperature: 28° c. 82.4°f.
* Wind from: 340° Speed 07 kn.
Dewpoint: 08° c.
Visibility: 10 Statute Miles.
Clouds: Clear (automated report).

KPGA 141353Z AUTO 34007KT 10SM CLR 28/08 A2999 RMK AO2 SLP073 T02780083 TSNO


Wind From 340°
Speed 07 kn.

 
 
jpsmedia.com for Web Design worldairports.se 2018   terms of use